createdAt,value
2019-02-22T00:01:39.933Z,102281.30
2019-02-22T00:04:09.522Z,102274.23
2019-02-22T00:06:39.087Z,102273.26
2019-02-22T00:09:09.218Z,102278.20
2019-02-22T00:11:38.805Z,102275.59
2019-02-22T00:14:08.657Z,102276.31
2019-02-22T00:16:38.211Z,102279.73
2019-02-22T00:19:07.762Z,102277.51
2019-02-22T00:21:37.329Z,102287.69
2019-02-22T00:24:06.870Z,102288.59
2019-02-22T00:26:36.451Z,102288.98
2019-02-22T00:29:06.052Z,102288.55
2019-02-22T00:31:35.603Z,102288.98
2019-02-22T00:34:05.179Z,102291.55
2019-02-22T00:36:34.790Z,102298.89
2019-02-22T00:39:05.316Z,102293.19
2019-02-22T00:41:35.002Z,102297.97
2019-02-22T00:44:04.663Z,102305.05
2019-02-22T00:46:34.269Z,102309.02
2019-02-22T00:49:03.871Z,102312.11
2019-02-22T00:51:33.464Z,102310.85
2019-02-22T00:54:03.318Z,102304.33
2019-02-22T00:56:32.849Z,102312.11
2019-02-22T00:59:02.420Z,102314.78
2019-02-22T01:01:33.446Z,102303.51
2019-02-22T01:04:03.018Z,102314.34
2019-02-22T01:06:32.545Z,102322.62
2019-02-22T01:09:02.099Z,102332.19
2019-02-22T01:11:32.742Z,102336.94
2019-02-22T01:14:02.283Z,102335.23
2019-02-22T01:16:31.862Z,102336.15
2019-02-22T01:19:01.378Z,102337.84
2019-02-22T01:21:31.212Z,102336.00
2019-02-22T01:24:00.770Z,102339.88
2019-02-22T01:26:30.461Z,102343.36
2019-02-22T01:29:00.224Z,102349.02
2019-02-22T01:31:29.772Z,102346.41
2019-02-22T01:33:59.346Z,102346.02
2019-02-22T01:36:28.906Z,102350.81
2019-02-22T01:38:58.457Z,102353.09
2019-02-22T01:41:28.029Z,102360.55
2019-02-22T01:43:57.647Z,102359.28
2019-02-22T01:46:27.592Z,102364.64
2019-02-22T01:48:57.237Z,102365.52
2019-02-22T01:51:26.786Z,102357.63
2019-02-22T01:53:56.375Z,102365.52
2019-02-22T01:56:25.940Z,102357.16
2019-02-22T01:58:55.462Z,102359.23
2019-02-22T02:01:25.087Z,102350.47
2019-02-22T02:03:54.632Z,102357.88
2019-02-22T02:06:24.206Z,102358.79
2019-02-22T02:08:56.776Z,102352.61
2019-02-22T02:11:26.353Z,102358.36
2019-02-22T02:13:59.213Z,102368.46
2019-02-22T02:16:28.822Z,102374.95
2019-02-22T02:18:58.419Z,102378.78
2019-02-22T02:21:27.929Z,102378.83
2019-02-22T02:23:57.559Z,102381.48
2019-02-22T02:26:27.138Z,102373.61
2019-02-22T02:28:56.694Z,102375.73
2019-02-22T02:31:26.231Z,102375.77
2019-02-22T02:33:58.280Z,102376.64
2019-02-22T02:36:27.047Z,102377.95
2019-02-22T02:38:56.632Z,102384.00
2019-02-22T02:41:26.177Z,102376.31
2019-02-22T02:43:57.371Z,102383.70
2019-02-22T02:46:27.205Z,102388.05
2019-02-22T02:48:56.723Z,102384.96
2019-02-22T02:51:26.271Z,102386.66
2019-02-22T02:53:58.309Z,102391.01
2019-02-22T02:56:27.451Z,102387.09
2019-02-22T02:58:56.969Z,102382.31
2019-02-22T03:01:26.498Z,102379.69
2019-02-22T03:03:57.671Z,102387.91
2019-02-22T03:06:31.484Z,102391.49
2019-02-22T03:09:01.055Z,102395.02
2019-02-22T03:11:30.604Z,102391.97
2019-02-22T03:14:00.154Z,102390.15
2019-02-22T03:16:29.777Z,102390.53
2019-02-22T03:18:59.348Z,102387.44
2019-02-22T03:21:28.935Z,102386.95
2019-02-22T03:24:01.399Z,102385.70
2019-02-22T03:26:31.992Z,102388.78
2019-02-22T03:29:01.549Z,102386.18
2019-02-22T03:31:31.278Z,102388.35
2019-02-22T03:34:01.083Z,102398.41
2019-02-22T03:36:30.628Z,102401.98
2019-02-22T03:39:00.215Z,102406.43
2019-02-22T03:41:34.122Z,102420.45
2019-02-22T03:44:01.068Z,102427.45
2019-02-22T03:46:30.637Z,102427.94
2019-02-22T03:49:00.202Z,102430.11
2019-02-22T03:51:29.773Z,102434.11
2019-02-22T03:53:59.313Z,102439.41
2019-02-22T03:56:28.918Z,102447.26
2019-02-22T03:58:58.863Z,102454.61
2019-02-22T04:01:28.487Z,102462.00
2019-02-22T04:03:58.060Z,102465.05
2019-02-22T04:06:27.610Z,102464.22
2019-02-22T04:08:57.187Z,102473.77
2019-02-22T04:11:26.749Z,102480.80
2019-02-22T04:13:59.042Z,102480.00
2019-02-22T04:16:28.595Z,102485.66
2019-02-22T04:18:58.139Z,102485.23
2019-02-22T04:21:27.687Z,102493.56
2019-02-22T04:23:57.263Z,102489.14
2019-02-22T04:26:26.860Z,102481.27
2019-02-22T04:28:56.394Z,102484.28
2019-02-22T04:31:25.942Z,102487.72
2019-02-22T04:33:56.957Z,102488.59
2019-02-22T04:36:26.552Z,102492.03
2019-02-22T04:38:56.101Z,102492.47
2019-02-22T04:41:25.650Z,102494.68
2019-02-22T04:43:55.458Z,102495.23
2019-02-22T04:46:25.027Z,102496.90
2019-02-22T04:48:55.280Z,102497.01
2019-02-22T04:51:24.834Z,102493.93
2019-02-22T04:53:54.639Z,102493.53
2019-02-22T04:56:24.180Z,102497.38
2019-02-22T04:58:53.995Z,102496.03
2019-02-22T05:01:23.553Z,102496.83
2019-02-22T05:03:53.105Z,102498.99
2019-02-22T05:06:22.657Z,102498.08
2019-02-22T05:08:52.243Z,102502.47
2019-02-22T05:11:21.803Z,102499.03
2019-02-22T05:13:51.375Z,102500.77
2019-02-22T05:16:20.914Z,102503.83
2019-02-22T05:18:50.459Z,102505.16
2019-02-22T05:21:20.050Z,102508.28
2019-02-22T05:23:49.598Z,102508.72
2019-02-22T05:26:19.175Z,102512.20
2019-02-22T05:28:48.701Z,102512.20
2019-02-22T05:31:19.279Z,102513.14
2019-02-22T05:33:50.512Z,102515.79
2019-02-22T05:36:20.155Z,102526.77
2019-02-22T05:38:49.691Z,102523.36
2019-02-22T05:41:19.521Z,102525.46
2019-02-22T05:43:49.063Z,102524.96
2019-02-22T05:46:18.619Z,102520.14
2019-02-22T05:48:48.153Z,102522.78
2019-02-22T05:51:19.211Z,102527.17
2019-02-22T05:53:50.435Z,102531.05
2019-02-22T05:56:19.969Z,102539.31
2019-02-22T05:58:49.507Z,102547.17
2019-02-22T06:01:19.073Z,102552.87
2019-02-22T06:03:48.641Z,102554.54
2019-02-22T06:06:18.166Z,102561.56
2019-02-22T06:08:47.719Z,102563.73
2019-02-22T06:11:18.412Z,102557.15
2019-02-22T06:13:48.035Z,102563.17
2019-02-22T06:16:17.629Z,102566.59
2019-02-22T06:18:47.620Z,102573.52
2019-02-22T06:21:17.151Z,102575.63
2019-02-22T06:23:48.139Z,102575.19
2019-02-22T06:26:18.763Z,102576.02
2019-02-22T06:28:48.331Z,102575.58
2019-02-22T06:31:19.595Z,102573.81
2019-02-22T06:33:49.570Z,102588.56
2019-02-22T06:36:19.238Z,102586.42
2019-02-22T06:38:48.921Z,102587.73
2019-02-22T06:41:21.362Z,102590.34
2019-02-22T06:43:50.880Z,102589.87
2019-02-22T06:46:22.083Z,102593.32
2019-02-22T06:48:51.635Z,102596.30
2019-02-22T06:51:22.852Z,102587.59
2019-02-22T06:53:53.798Z,102587.99
2019-02-22T06:56:24.279Z,102598.00
2019-02-22T06:58:56.502Z,102598.04
2019-02-22T07:01:26.028Z,102597.20
2019-02-22T07:03:55.842Z,102601.95
2019-02-22T07:06:26.430Z,102597.27
2019-02-22T07:08:58.914Z,102607.65
2019-02-22T07:11:32.509Z,102606.34
2019-02-22T07:14:02.046Z,102610.26
2019-02-22T07:16:31.624Z,102620.23
2019-02-22T07:19:01.223Z,102620.20
2019-02-22T07:21:40.382Z,102619.33
2019-02-22T07:24:03.820Z,102628.91
2019-02-22T07:26:33.446Z,102629.87
2019-02-22T07:29:03.059Z,102640.76
2019-02-22T07:31:34.032Z,102644.24
2019-02-22T07:34:06.199Z,102644.24
2019-02-22T07:36:37.189Z,102644.64
2019-02-22T07:39:07.521Z,102653.75
2019-02-22T07:41:37.086Z,102657.20
2019-02-22T07:44:07.426Z,102658.97
2019-02-22T07:46:42.092Z,102661.22
2019-02-22T07:49:11.642Z,102668.71
2019-02-22T07:51:41.287Z,102675.64
2019-02-22T07:54:12.317Z,102676.92
2019-02-22T07:56:41.913Z,102681.67
2019-02-22T07:59:14.497Z,102689.13
2019-02-22T08:01:47.918Z,102695.20
2019-02-22T08:04:17.119Z,102694.79
2019-02-22T08:06:47.131Z,102697.00
2019-02-22T08:09:16.656Z,102704.77
2019-02-22T08:11:47.497Z,102704.77
2019-02-22T08:14:17.675Z,102703.91
2019-02-22T08:16:53.192Z,102714.78
2019-02-22T08:19:22.762Z,102717.02
2019-02-22T08:21:52.309Z,102717.39
2019-02-22T08:24:21.902Z,102719.51
2019-02-22T08:26:51.978Z,102727.78
2019-02-22T08:29:22.344Z,102724.73
2019-02-22T08:31:54.474Z,102732.54
2019-02-22T08:34:24.293Z,102732.11
2019-02-22T08:36:53.936Z,102742.55
2019-02-22T08:39:26.226Z,102746.00
2019-02-22T08:41:55.973Z,102748.13
2019-02-22T08:44:25.512Z,102745.91
2019-02-22T08:46:55.199Z,102752.97
2019-02-22T08:49:24.739Z,102760.38
2019-02-22T08:51:54.278Z,102759.84
2019-02-22T08:54:23.857Z,102757.17
2019-02-22T08:56:53.880Z,102766.66
2019-02-22T08:59:25.887Z,102770.55
2019-02-22T09:01:57.050Z,102765.73
2019-02-22T09:04:26.598Z,102766.09
2019-02-22T09:07:02.080Z,102768.21
2019-02-22T09:09:31.954Z,102768.61
2019-02-22T09:12:01.534Z,102772.50
2019-02-22T09:14:31.122Z,102764.63
2019-02-22T09:17:01.328Z,102776.31
2019-02-22T09:19:31.058Z,102781.55
2019-02-22T09:22:00.633Z,102777.23
2019-02-22T09:24:30.163Z,102782.39
2019-02-22T09:26:59.767Z,102790.05
2019-02-22T09:29:31.096Z,102794.92
2019-02-22T09:32:00.743Z,102799.67
2019-02-22T09:34:30.283Z,102797.94
2019-02-22T09:36:59.871Z,102800.08
2019-02-22T09:39:31.245Z,102800.15
2019-02-22T09:42:00.766Z,102797.06
2019-02-22T09:44:30.345Z,102798.19
2019-02-22T09:47:01.550Z,102800.70
2019-02-22T09:49:32.215Z,102802.30
2019-02-22T09:52:01.770Z,102812.91
2019-02-22T09:54:31.412Z,102809.89
2019-02-22T09:57:05.050Z,102812.80
2019-02-22T09:59:36.285Z,102810.06
2019-02-22T10:02:05.876Z,102813.44
2019-02-22T10:04:35.441Z,102818.55
2019-02-22T10:07:05.011Z,102811.06
2019-02-22T10:09:34.590Z,102813.23
2019-02-22T10:12:07.382Z,102811.89
2019-02-22T10:14:37.783Z,102816.33
2019-02-22T10:17:07.333Z,102817.16
2019-02-22T10:19:42.652Z,102818.30
2019-02-22T10:22:12.430Z,102822.45
2019-02-22T10:24:44.753Z,102815.81
2019-02-22T10:27:16.148Z,102820.42
2019-02-22T10:29:45.705Z,102817.63
2019-02-22T10:32:15.984Z,102817.44
2019-02-22T10:34:47.664Z,102818.75
2019-02-22T10:37:18.049Z,102822.00
2019-02-22T10:39:48.608Z,102817.14
2019-02-22T10:42:18.182Z,102824.09
2019-02-22T10:44:47.748Z,102829.23
2019-02-22T10:47:21.905Z,102826.06
2019-02-22T10:49:53.123Z,102829.56
2019-02-22T10:52:22.690Z,102831.84
2019-02-22T10:54:52.293Z,102838.11
2019-02-22T10:57:22.023Z,102843.98
2019-02-22T10:59:52.007Z,102846.16
2019-02-22T11:02:22.005Z,102848.83
2019-02-22T11:04:52.992Z,102847.61
2019-02-22T11:07:22.572Z,102841.55
2019-02-22T11:09:52.157Z,102841.11
2019-02-22T11:12:21.733Z,102835.44
2019-02-22T11:14:51.394Z,102830.55
2019-02-22T11:17:20.930Z,102839.80
2019-02-22T11:19:53.343Z,102838.14
2019-02-22T11:22:22.916Z,102836.80
2019-02-22T11:24:53.086Z,102840.72
2019-02-22T11:27:22.731Z,102838.98
2019-02-22T11:29:52.365Z,102845.61
2019-02-22T11:32:24.649Z,102840.81
2019-02-22T11:34:55.078Z,102847.75
2019-02-22T11:37:25.664Z,102847.22
2019-02-22T11:39:56.828Z,102850.37
2019-02-22T11:42:27.737Z,102849.84
2019-02-22T11:44:59.090Z,102850.62
2019-02-22T11:47:28.684Z,102845.29
2019-02-22T11:49:58.265Z,102844.72
2019-02-22T11:52:27.807Z,102851.11
2019-02-22T11:54:58.546Z,102852.23
2019-02-22T11:57:31.484Z,102859.12
2019-02-22T12:00:01.066Z,102850.38
2019-02-22T12:02:31.825Z,102856.44
2019-02-22T12:05:01.361Z,102865.52
2019-02-22T12:07:31.793Z,102867.05
2019-02-22T12:10:01.634Z,102866.51
2019-02-22T12:12:31.720Z,102876.57
2019-02-22T12:15:02.337Z,102877.16
2019-02-22T12:17:31.834Z,102877.59
2019-02-22T12:20:01.767Z,102869.23
2019-02-22T12:22:32.428Z,102874.53
2019-02-22T12:25:02.368Z,102876.39
2019-02-22T12:27:32.553Z,102871.24
2019-02-22T12:30:02.111Z,102871.84
2019-02-22T12:32:32.784Z,102874.55
2019-02-22T12:35:02.365Z,102875.38
2019-02-22T12:37:31.901Z,102880.04
2019-02-22T12:40:03.340Z,102878.64
2019-02-22T12:42:32.922Z,102878.97
2019-02-22T12:45:03.590Z,102883.81
2019-02-22T12:47:33.304Z,102874.21
2019-02-22T12:50:02.896Z,102877.70
2019-02-22T12:52:37.119Z,102876.73
2019-02-22T12:55:11.597Z,102879.34
2019-02-22T12:57:41.178Z,102875.45
2019-02-22T13:00:14.470Z,102882.45
2019-02-22T13:02:44.306Z,102888.63
2019-02-22T13:05:20.875Z,102886.83
2019-02-22T13:07:52.569Z,102894.64
2019-02-22T13:10:22.986Z,102887.66
2019-02-22T13:12:56.321Z,102894.30
2019-02-22T13:15:25.926Z,102886.77
2019-02-22T13:17:55.523Z,102892.30
2019-02-22T13:20:25.842Z,102890.83
2019-02-22T13:22:55.794Z,102886.07
2019-02-22T13:25:25.479Z,102883.89
2019-02-22T13:27:55.422Z,102887.78
2019-02-22T13:30:25.314Z,102893.47
2019-02-22T13:32:54.941Z,102888.70
2019-02-22T13:35:24.553Z,102896.19
2019-02-22T13:37:54.094Z,102901.09
2019-02-22T13:40:24.319Z,102892.84
2019-02-22T13:42:55.470Z,102899.89
2019-02-22T13:45:27.033Z,102909.59
2019-02-22T13:47:57.927Z,102907.91
2019-02-22T13:50:27.982Z,102902.23
2019-02-22T13:52:58.061Z,102910.09
2019-02-22T13:55:28.040Z,102911.94
2019-02-22T13:57:58.286Z,102922.09
2019-02-22T14:00:27.819Z,102921.20
2019-02-22T14:02:58.161Z,102927.81
2019-02-22T14:05:27.715Z,102931.78
2019-02-22T14:08:00.253Z,102933.05
2019-02-22T14:10:33.886Z,102927.28
2019-02-22T14:13:03.432Z,102919.80
2019-02-22T14:15:37.864Z,102913.14
2019-02-22T14:18:06.455Z,102914.80
2019-02-22T14:20:36.022Z,102912.90
2019-02-22T14:23:05.639Z,102915.91
2019-02-22T14:25:35.551Z,102916.78
2019-02-22T14:28:05.663Z,102918.64
2019-02-22T14:30:36.497Z,102913.92
2019-02-22T14:33:06.137Z,102916.20
2019-02-22T14:35:36.119Z,102913.24
2019-02-22T14:38:06.132Z,102913.16
2019-02-22T14:40:38.794Z,102913.98
2019-02-22T14:43:16.067Z,102916.16
2019-02-22T14:45:48.939Z,102910.96
2019-02-22T14:48:12.228Z,102910.58
2019-02-22T14:50:41.781Z,102905.82
2019-02-22T14:53:19.416Z,102910.23
2019-02-22T14:55:43.512Z,102908.40
2019-02-22T14:58:13.543Z,102921.64
2019-02-22T15:00:43.819Z,102916.01
2019-02-22T15:03:17.794Z,102917.66
2019-02-22T15:05:47.317Z,102918.44
2019-02-22T15:08:18.981Z,102917.56
2019-02-22T15:10:49.038Z,102923.69
2019-02-22T15:13:18.689Z,102921.06
2019-02-22T15:16:00.616Z,102924.70
2019-02-22T15:18:24.595Z,102923.34
2019-02-22T15:20:54.161Z,102929.91
2019-02-22T15:23:23.709Z,102926.94
2019-02-22T15:25:54.299Z,102932.56
2019-02-22T15:28:26.354Z,102927.33
2019-02-22T15:30:55.158Z,102940.91
2019-02-22T15:33:25.724Z,102944.41
2019-02-22T15:35:55.311Z,102941.31
2019-02-22T15:38:24.883Z,102937.38
2019-02-22T15:40:54.471Z,102939.13
2019-02-22T15:43:24.094Z,102941.80
2019-02-22T15:45:54.001Z,102950.58
2019-02-22T15:48:23.867Z,102950.70
2019-02-22T15:50:53.696Z,102959.97
2019-02-22T15:53:25.013Z,102950.32
2019-02-22T15:55:54.874Z,102944.20
2019-02-22T15:58:24.947Z,102946.30
2019-02-22T16:00:54.646Z,102947.22
2019-02-22T16:03:25.965Z,102945.16
2019-02-22T16:05:55.543Z,102943.47
2019-02-22T16:08:25.347Z,102952.64
2019-02-22T16:10:55.004Z,102951.41
2019-02-22T16:13:25.180Z,102946.17
2019-02-22T16:15:55.792Z,102940.93
2019-02-22T16:18:26.461Z,102942.33
2019-02-22T16:20:56.508Z,102940.66
2019-02-22T16:23:26.166Z,102938.56
2019-02-22T16:26:00.083Z,102938.09
2019-02-22T16:28:30.355Z,102945.16
2019-02-22T16:30:59.945Z,102953.49
2019-02-22T16:33:30.044Z,102957.10
2019-02-22T16:35:59.909Z,102962.89
2019-02-22T16:38:31.137Z,102961.19
2019-02-22T16:41:02.355Z,102962.53
2019-02-22T16:43:32.669Z,102963.05
2019-02-22T16:46:02.512Z,102968.83
2019-02-22T16:48:32.639Z,102981.52
2019-02-22T16:51:02.753Z,102979.40
2019-02-22T16:53:32.714Z,102979.47
2019-02-22T16:56:02.755Z,102980.38
2019-02-22T16:58:32.601Z,102979.53
2019-02-22T17:01:02.278Z,102978.66
2019-02-22T17:03:33.478Z,102985.70
2019-02-22T17:06:02.977Z,102992.65
2019-02-22T17:08:32.537Z,102995.27
2019-02-22T17:11:03.735Z,102991.81
2019-02-22T17:13:33.280Z,103001.43
2019-02-22T17:16:03.375Z,103002.30
2019-02-22T17:18:33.401Z,103011.52
2019-02-22T17:21:03.537Z,103025.02
2019-02-22T17:23:33.571Z,103035.97
2019-02-22T17:26:03.663Z,103031.20
2019-02-22T17:28:36.333Z,103036.02
2019-02-22T17:31:42.995Z,103042.16
2019-02-22T17:34:15.538Z,103042.19
2019-02-22T17:36:45.909Z,103031.75
2019-02-22T17:39:15.899Z,103032.19
2019-02-22T17:41:46.000Z,103027.36
2019-02-22T17:44:17.142Z,103032.22
2019-02-22T17:46:56.568Z,103030.91
2019-02-22T17:49:17.964Z,103022.16
2019-02-22T17:51:47.532Z,103023.47
2019-02-22T17:54:18.356Z,103030.00
2019-02-22T17:56:47.941Z,103025.64
2019-02-22T17:59:17.537Z,103029.13
2019-02-22T18:01:51.534Z,103025.67
2019-02-22T18:04:21.073Z,103026.16
2019-02-22T18:06:51.684Z,103030.95
2019-02-22T18:09:21.556Z,103036.22
2019-02-22T18:11:51.139Z,103039.73
2019-02-22T18:14:21.440Z,103044.95
2019-02-22T18:16:51.488Z,103042.36
2019-02-22T18:19:21.614Z,103047.16
2019-02-22T18:21:51.755Z,103052.83
2019-02-22T18:24:21.669Z,103047.13
2019-02-22T18:26:51.701Z,103047.16
2019-02-22T18:29:21.238Z,103043.23
2019-02-22T18:31:52.910Z,103038.49
2019-02-22T18:34:22.898Z,103041.13
2019-02-22T18:36:53.025Z,103043.28
2019-02-22T18:39:22.847Z,103050.33
2019-02-22T18:41:52.411Z,103050.81
2019-02-22T18:44:21.964Z,103047.78
2019-02-22T18:46:51.521Z,103041.22
2019-02-22T18:49:21.082Z,103042.57
2019-02-22T18:51:50.901Z,103041.23
2019-02-22T18:54:20.518Z,103034.77
2019-02-22T18:56:51.697Z,103040.93
2019-02-22T18:59:21.203Z,103038.36
2019-02-22T19:01:50.841Z,103034.02
2019-02-22T19:04:20.361Z,103033.63
2019-02-22T19:06:49.903Z,103029.28
2019-02-22T19:09:19.489Z,103028.45
2019-02-22T19:11:49.015Z,103026.76
2019-02-22T19:14:18.628Z,103033.28
2019-02-22T19:16:49.493Z,103031.98
2019-02-22T19:19:19.039Z,103028.11
2019-02-22T19:21:48.810Z,103024.20
2019-02-22T19:24:21.812Z,103021.22
2019-02-22T19:26:51.436Z,103024.25
2019-02-22T19:29:21.430Z,103034.70
2019-02-22T19:31:52.757Z,103028.19
2019-02-22T19:34:22.316Z,103036.48
2019-02-22T19:36:51.845Z,103032.16
2019-02-22T19:39:22.568Z,103040.03
2019-02-22T19:41:54.157Z,103050.48
2019-02-22T19:44:23.728Z,103052.67
2019-02-22T19:46:55.596Z,103049.19
2019-02-22T19:49:26.078Z,103057.45
2019-02-22T19:51:56.858Z,103056.59
2019-02-22T19:54:28.076Z,103069.66
2019-02-22T19:56:57.603Z,103075.34
2019-02-22T19:59:31.165Z,103074.03
2019-02-22T20:02:00.649Z,103070.14
2019-02-22T20:04:30.578Z,103064.06
2019-02-22T20:07:01.837Z,103067.97
2019-02-22T20:09:31.375Z,103075.79
2019-02-22T20:12:01.231Z,103077.11
2019-02-22T20:14:32.508Z,103075.36
2019-02-22T20:17:02.122Z,103075.79
2019-02-22T20:19:31.719Z,103093.18
2019-02-22T20:22:01.264Z,103094.50
2019-02-22T20:24:30.942Z,103087.53
2019-02-22T20:27:03.722Z,103089.73
2019-02-22T20:29:34.616Z,103094.08
2019-02-22T20:32:05.325Z,103087.59
2019-02-22T20:34:34.860Z,103088.89
2019-02-22T20:37:05.101Z,103088.45
2019-02-22T20:39:35.984Z,103089.34
2019-02-22T20:42:05.572Z,103091.49
2019-02-22T20:44:36.915Z,103084.13
2019-02-22T20:47:08.431Z,103086.28
2019-02-22T20:49:41.072Z,103099.75
2019-02-22T20:52:10.374Z,103105.82
2019-02-22T20:54:40.179Z,103112.32
2019-02-22T20:57:09.768Z,103104.92
2019-02-22T20:59:41.229Z,103107.53
2019-02-22T21:02:12.413Z,103109.70
2019-02-22T21:04:42.046Z,103112.73
2019-02-22T21:07:11.581Z,103104.89
2019-02-22T21:09:43.942Z,103101.86
2019-02-22T21:12:13.583Z,103107.06
2019-02-22T21:14:43.188Z,103104.87
2019-02-22T21:17:18.681Z,103113.11
2019-02-22T21:19:48.261Z,103117.00
2019-02-22T21:22:18.118Z,103123.09
2019-02-22T21:24:50.874Z,103125.69
2019-02-22T21:27:22.033Z,103121.78
2019-02-22T21:29:52.615Z,103118.72
2019-02-22T21:32:23.695Z,103123.50
2019-02-22T21:34:53.288Z,103119.09
2019-02-22T21:37:23.228Z,103118.65
2019-02-22T21:39:55.641Z,103123.84
2019-02-22T21:42:27.022Z,103130.30
2019-02-22T21:44:56.605Z,103137.22
2019-02-22T21:47:26.661Z,103130.69
2019-02-22T21:49:56.332Z,103128.52
2019-02-22T21:52:26.229Z,103134.59
2019-02-22T21:54:55.747Z,103136.75
2019-02-22T21:57:25.355Z,103134.60
2019-02-22T21:59:59.141Z,103134.58
2019-02-22T22:02:28.812Z,103141.05
2019-02-22T22:04:58.742Z,103141.02
2019-02-22T22:07:28.286Z,103141.43
2019-02-22T22:09:58.101Z,103135.77
2019-02-22T22:12:27.619Z,103127.97
2019-02-22T22:14:57.175Z,103127.57
2019-02-22T22:17:26.717Z,103129.29
2019-02-22T22:19:56.320Z,103134.50
2019-02-22T22:22:25.850Z,103135.75
2019-02-22T22:24:55.411Z,103138.34
2019-02-22T22:27:26.262Z,103145.66
2019-02-22T22:29:55.829Z,103140.44
2019-02-22T22:32:25.377Z,103143.48
2019-02-22T22:34:54.924Z,103145.20
2019-02-22T22:37:24.455Z,103148.20
2019-02-22T22:39:54.032Z,103149.90
2019-02-22T22:42:23.568Z,103147.70
2019-02-22T22:44:53.155Z,103145.05
2019-02-22T22:47:22.760Z,103137.25
2019-02-22T22:49:52.305Z,103152.48
2019-02-22T22:52:21.878Z,103144.20
2019-02-22T22:54:51.450Z,103144.99
2019-02-22T22:57:22.239Z,103147.95
2019-02-22T22:59:51.752Z,103144.45
2019-02-22T23:02:21.282Z,103143.52
2019-02-22T23:04:56.529Z,103142.22
2019-02-22T23:07:27.291Z,103146.52
2019-02-22T23:09:56.829Z,103146.94
2019-02-22T23:12:26.391Z,103145.21
2019-02-22T23:14:55.952Z,103148.63
2019-02-22T23:17:25.576Z,103153.36
2019-02-22T23:19:55.120Z,103154.63
2019-02-22T23:22:24.666Z,103152.03
2019-02-22T23:24:54.236Z,103160.22
2019-02-22T23:27:25.298Z,103156.70
2019-02-22T23:29:56.773Z,103154.92
2019-02-22T23:32:26.072Z,103166.11
2019-02-22T23:34:55.625Z,103167.80
2019-02-22T23:37:25.191Z,103158.25
2019-02-22T23:39:54.713Z,103158.21
2019-02-22T23:42:24.925Z,103155.12
2019-02-22T23:44:54.521Z,103153.78
2019-02-22T23:47:25.420Z,103150.31
2019-02-22T23:49:55.264Z,103159.39
2019-02-22T23:52:24.943Z,103157.17
2019-02-22T23:54:54.712Z,103153.70
2019-02-22T23:57:24.259Z,103145.07
2019-02-22T23:59:58.517Z,103149.73
